sensor_id;sensor_type;location;lat;lon;timestamp;temperature;humidity
6863;DHT22;3470;48.738;9.616;2022-10-23T17:44:13;18.50;95.50
6863;DHT22;3470;48.738;9.616;2022-10-23T17:46:39;18.20;95.80
6863;DHT22;3470;48.738;9.616;2022-10-23T17:49:05;18.10;95.90
6863;DHT22;3470;48.738;9.616;2022-10-23T17:51:32;18.10;96.00
6863;DHT22;3470;48.738;9.616;2022-10-23T17:54:07;18.10;96.20
6863;DHT22;3470;48.738;9.616;2022-10-23T17:56:34;18.00;96.60
6863;DHT22;3470;48.738;9.616;2022-10-23T17:59:05;17.90;96.40
6863;DHT22;3470;48.738;9.616;2022-10-23T18:01:31;17.90;96.70
6863;DHT22;3470;48.738;9.616;2022-10-23T18:04:00;17.90;96.60
6863;DHT22;3470;48.738;9.616;2022-10-23T18:06:29;17.90;96.50
6863;DHT22;3470;48.738;9.616;2022-10-23T18:08:57;17.90;96.50
6863;DHT22;3470;48.738;9.616;2022-10-23T18:11:25;17.90;96.50
6863;DHT22;3470;48.738;9.616;2022-10-23T18:13:52;17.90;96.70
6863;DHT22;3470;48.738;9.616;2022-10-23T18:16:18;17.90;96.60
6863;DHT22;3470;48.738;9.616;2022-10-23T18:18:45;18.10;96.40
6863;DHT22;3470;48.738;9.616;2022-10-23T18:21:13;18.10;96.30
6863;DHT22;3470;48.738;9.616;2022-10-23T18:23:39;18.10;96.20
6863;DHT22;3470;48.738;9.616;2022-10-23T18:26:13;18.20;96.30
6863;DHT22;3470;48.738;9.616;2022-10-23T18:28:41;18.20;96.30
6863;DHT22;3470;48.738;9.616;2022-10-23T18:31:09;18.10;96.60
6863;DHT22;3470;48.738;9.616;2022-10-23T18:33:35;18.00;96.70
6863;DHT22;3470;48.738;9.616;2022-10-23T18:36:00;18.10;96.60
6863;DHT22;3470;48.738;9.616;2022-10-23T18:38:26;18.00;96.60
6863;DHT22;3470;48.738;9.616;2022-10-23T18:40:55;18.00;96.70
6863;DHT22;3470;48.738;9.616;2022-10-23T18:43:21;18.00;96.60
6863;DHT22;3470;48.738;9.616;2022-10-23T18:45:48;18.00;96.70
6863;DHT22;3470;48.738;9.616;2022-10-23T18:48:13;18.00;96.60
6863;DHT22;3470;48.738;9.616;2022-10-23T18:50:40;18.00;96.70
6863;DHT22;3470;48.738;9.616;2022-10-23T18:53:05;18.00;96.80
6863;DHT22;3470;48.738;9.616;2022-10-23T18:55:31;17.90;96.90
6863;DHT22;3470;48.738;9.616;2022-10-23T18:57:56;18.00;96.80
6863;DHT22;3470;48.738;9.616;2022-10-23T19:00:22;18.00;96.90
6863;DHT22;3470;48.738;9.616;2022-10-23T19:02:48;17.90;96.90
6863;DHT22;3470;48.738;9.616;2022-10-23T19:05:13;17.90;96.90
6863;DHT22;3470;48.738;9.616;2022-10-23T19:07:43;17.90;96.60
6863;DHT22;3470;48.738;9.616;2022-10-23T19:10:10;17.90;96.40
6863;DHT22;3470;48.738;9.616;2022-10-23T19:12:40;17.90;96.10
6863;DHT22;3470;48.738;9.616;2022-10-23T19:15:07;18.00;96.10
6863;DHT22;3470;48.738;9.616;2022-10-23T19:17:33;18.00;96.90
6863;DHT22;3470;48.738;9.616;2022-10-23T19:20:02;17.90;97.50
6863;DHT22;3470;48.738;9.616;2022-10-23T19:22:31;17.90;97.40
6863;DHT22;3470;48.738;9.616;2022-10-23T19:25:06;17.80;97.00
6863;DHT22;3470;48.738;9.616;2022-10-23T19:27:34;17.70;97.30
6863;DHT22;3470;48.738;9.616;2022-10-23T19:30:00;17.70;97.30
6863;DHT22;3470;48.738;9.616;2022-10-23T19:32:28;17.70;97.40
6863;DHT22;3470;48.738;9.616;2022-10-23T19:34:53;17.70;97.60
6863;DHT22;3470;48.738;9.616;2022-10-23T19:37:19;17.70;96.70
6863;DHT22;3470;48.738;9.616;2022-10-23T19:39:44;17.80;95.50
6863;DHT22;3470;48.738;9.616;2022-10-23T19:42:10;17.80;95.70
6863;DHT22;3470;48.738;9.616;2022-10-23T19:44:36;17.90;94.60
6863;DHT22;3470;48.738;9.616;2022-10-23T19:47:02;18.00;94.20
6863;DHT22;3470;48.738;9.616;2022-10-23T19:49:28;18.10;94.00
6863;DHT22;3470;48.738;9.616;2022-10-23T19:51:54;18.20;94.10
6863;DHT22;3470;48.738;9.616;2022-10-23T19:54:20;18.20;94.00
6863;DHT22;3470;48.738;9.616;2022-10-23T19:56:46;18.20;94.30
6863;DHT22;3470;48.738;9.616;2022-10-23T19:59:12;18.20;94.20
6863;DHT22;3470;48.738;9.616;2022-10-23T20:01:37;18.20;93.90
6863;DHT22;3470;48.738;9.616;2022-10-23T20:04:03;18.20;93.90
6863;DHT22;3470;48.738;9.616;2022-10-23T20:06:31;18.40;93.50
6863;DHT22;3470;48.738;9.616;2022-10-23T20:09:00;18.40;93.50
6863;DHT22;3470;48.738;9.616;2022-10-23T20:11:28;18.40;94.20
6863;DHT22;3470;48.738;9.616;2022-10-23T20:13:54;18.30;94.40
6863;DHT22;3470;48.738;9.616;2022-10-23T20:16:27;18.40;92.70
6863;DHT22;3470;48.738;9.616;2022-10-23T20:18:53;18.60;92.70
6863;DHT22;3470;48.738;9.616;2022-10-23T20:21:19;18.60;93.10
6863;DHT22;3470;48.738;9.616;2022-10-23T20:23:45;18.40;93.50
6863;DHT22;3470;48.738;9.616;2022-10-23T20:26:14;18.50;92.60
6863;DHT22;3470;48.738;9.616;2022-10-23T20:28:41;18.70;91.50
6863;DHT22;3470;48.738;9.616;2022-10-23T20:31:09;18.90;91.00
6863;DHT22;3470;48.738;9.616;2022-10-23T20:33:36;19.10;90.50
6863;DHT22;3470;48.738;9.616;2022-10-23T20:36:08;19.20;90.20
6863;DHT22;3470;48.738;9.616;2022-10-23T20:38:35;19.20;90.40
6863;DHT22;3470;48.738;9.616;2022-10-23T20:41:02;19.20;90.40
6863;DHT22;3470;48.738;9.616;2022-10-23T20:43:32;19.10;90.40
6863;DHT22;3470;48.738;9.616;2022-10-23T20:46:08;19.20;90.40
6863;DHT22;3470;48.738;9.616;2022-10-23T20:48:38;19.20;90.20
6863;DHT22;3470;48.738;9.616;2022-10-23T20:51:05;19.20;90.50
6863;DHT22;3470;48.738;9.616;2022-10-23T20:53:32;19.20;90.90
6863;DHT22;3470;48.738;9.616;2022-10-23T20:55:58;19.00;90.90
6863;DHT22;3470;48.738;9.616;2022-10-23T20:58:23;19.00;90.80
6863;DHT22;3470;48.738;9.616;2022-10-23T21:00:49;19.00;90.90
6863;DHT22;3470;48.738;9.616;2022-10-23T21:03:14;19.00;90.70
6863;DHT22;3470;48.738;9.616;2022-10-23T21:05:40;19.10;90.20
6863;DHT22;3470;48.738;9.616;2022-10-23T21:08:07;19.10;90.70
6863;DHT22;3470;48.738;9.616;2022-10-23T21:10:33;19.00;90.70
6863;DHT22;3470;48.738;9.616;2022-10-23T21:12:59;18.90;91.10
6863;DHT22;3470;48.738;9.616;2022-10-23T21:15:24;18.90;91.10
6863;DHT22;3470;48.738;9.616;2022-10-23T21:17:50;18.80;90.90
6863;DHT22;3470;48.738;9.616;2022-10-23T21:20:17;18.90;90.80
6863;DHT22;3470;48.738;9.616;2022-10-23T21:22:42;18.90;90.70
6863;DHT22;3470;48.738;9.616;2022-10-23T21:25:08;18.90;90.60
6863;DHT22;3470;48.738;9.616;2022-10-23T21:27:34;19.00;90.50
6863;DHT22;3470;48.738;9.616;2022-10-23T21:30:00;19.00;90.30
6863;DHT22;3470;48.738;9.616;2022-10-23T21:32:25;19.00;90.20
6863;DHT22;3470;48.738;9.616;2022-10-23T21:34:51;19.10;90.20
6863;DHT22;3470;48.738;9.616;2022-10-23T21:37:16;19.10;90.10
6863;DHT22;3470;48.738;9.616;2022-10-23T21:39:43;19.10;89.90
6863;DHT22;3470;48.738;9.616;2022-10-23T21:42:09;19.10;89.80
6863;DHT22;3470;48.738;9.616;2022-10-23T21:44:35;19.00;90.10
6863;DHT22;3470;48.738;9.616;2022-10-23T21:47:01;18.90;90.20
6863;DHT22;3470;48.738;9.616;2022-10-23T21:49:26;18.90;90.40
6863;DHT22;3470;48.738;9.616;2022-10-23T21:51:52;18.90;90.40
6863;DHT22;3470;48.738;9.616;2022-10-23T21:54:19;18.90;90.40
6863;DHT22;3470;48.738;9.616;2022-10-23T21:56:49;18.90;90.60
6863;DHT22;3470;48.738;9.616;2022-10-23T21:59:18;18.80;90.60
6863;DHT22;3470;48.738;9.616;2022-10-23T22:01:45;18.80;90.90
6863;DHT22;3470;48.738;9.616;2022-10-23T22:04:13;18.70;91.00
6863;DHT22;3470;48.738;9.616;2022-10-23T22:06:40;18.60;91.30
6863;DHT22;3470;48.738;9.616;2022-10-23T22:09:07;18.50;91.40
6863;DHT22;3470;48.738;9.616;2022-10-23T22:11:33;18.50;91.50
6863;DHT22;3470;48.738;9.616;2022-10-23T22:13:59;18.50;91.70
6863;DHT22;3470;48.738;9.616;2022-10-23T22:16:25;18.40;91.70
6863;DHT22;3470;48.738;9.616;2022-10-23T22:18:51;18.30;92.30
6863;DHT22;3470;48.738;9.616;2022-10-23T22:21:22;18.30;91.80
6863;DHT22;3470;48.738;9.616;2022-10-23T22:23:48;18.30;91.80
6863;DHT22;3470;48.738;9.616;2022-10-23T22:28:59;18.30;92.20
6863;DHT22;3470;48.738;9.616;2022-10-23T22:31:29;18.20;92.20
6863;DHT22;3470;48.738;9.616;2022-10-23T22:33:55;18.10;92.50
6863;DHT22;3470;48.738;9.616;2022-10-23T22:36:22;18.10;92.50
6863;DHT22;3470;48.738;9.616;2022-10-23T22:38:47;18.00;92.70
6863;DHT22;3470;48.738;9.616;2022-10-23T22:41:14;17.90;92.90
6863;DHT22;3470;48.738;9.616;2022-10-23T22:43:40;17.80;92.90
6863;DHT22;3470;48.738;9.616;2022-10-23T22:46:12;17.80;93.30
6863;DHT22;3470;48.738;9.616;2022-10-23T22:48:38;17.70;93.50
6863;DHT22;3470;48.738;9.616;2022-10-23T22:51:04;17.60;93.90
6863;DHT22;3470;48.738;9.616;2022-10-23T22:53:31;17.60;93.90
6863;DHT22;3470;48.738;9.616;2022-10-23T22:55:56;17.50;94.10
6863;DHT22;3470;48.738;9.616;2022-10-23T22:58:23;17.40;94.20
6863;DHT22;3470;48.738;9.616;2022-10-23T23:00:49;17.40;94.30
6863;DHT22;3470;48.738;9.616;2022-10-23T23:03:15;17.30;94.50
6863;DHT22;3470;48.738;9.616;2022-10-23T23:05:42;17.20;94.80
6863;DHT22;3470;48.738;9.616;2022-10-23T23:08:08;17.20;95.10
6863;DHT22;3470;48.738;9.616;2022-10-23T23:10:34;17.10;95.00
6863;DHT22;3470;48.738;9.616;2022-10-23T23:12:59;17.10;95.20
6863;DHT22;3470;48.738;9.616;2022-10-23T23:15:25;17.10;95.10
6863;DHT22;3470;48.738;9.616;2022-10-23T23:17:52;17.10;95.20
6863;DHT22;3470;48.738;9.616;2022-10-23T23:20:17;17.10;95.30
6863;DHT22;3470;48.738;9.616;2022-10-23T23:22:43;17.10;95.30
6863;DHT22;3470;48.738;9.616;2022-10-23T23:25:09;17.10;95.40
6863;DHT22;3470;48.738;9.616;2022-10-23T23:27:34;17.00;95.40
6863;DHT22;3470;48.738;9.616;2022-10-23T23:30:00;17.00;95.50
6863;DHT22;3470;48.738;9.616;2022-10-23T23:32:26;17.00;95.50
6863;DHT22;3470;48.738;9.616;2022-10-23T23:34:51;17.00;95.60
6863;DHT22;3470;48.738;9.616;2022-10-23T23:37:17;17.00;95.40
6863;DHT22;3470;48.738;9.616;2022-10-23T23:39:42;17.00;95.40
6863;DHT22;3470;48.738;9.616;2022-10-23T23:42:08;17.00;95.50
6863;DHT22;3470;48.738;9.616;2022-10-23T23:44:33;17.00;95.40
6863;DHT22;3470;48.738;9.616;2022-10-23T23:46:59;17.00;95.50
6863;DHT22;3470;48.738;9.616;2022-10-23T23:49:24;17.00;95.50
6863;DHT22;3470;48.738;9.616;2022-10-23T23:51:50;17.00;95.60
6863;DHT22;3470;48.738;9.616;2022-10-23T23:54:16;17.00;95.70
6863;DHT22;3470;48.738;9.616;2022-10-23T23:56:42;16.90;95.80
6863;DHT22;3470;48.738;9.616;2022-10-23T23:59:07;16.90;95.90
